Time;durP1;ratioP1;P1;durP2;ratioP2;P2;SDS_P1;SDS_P2;PMS_P1;PMS_P2;Temp;Humidity;BMP_temperature;BMP_pressure;BME280_temperature;BME280_humidity;BME280_pressure;Samples;Min_cycle;Max_cycle;Signal;HPM_P1;HPM_P2
2023/09/15 00:00:24;;;;;;;6.43;2.55;;;13.10;99.90;;;;;;5030085;28;20072;-66
2023/09/15 00:02:54;;;;;;;9.93;2.55;;;13.10;99.90;;;;;;5029337;28;20045;-66
2023/09/15 00:05:22;;;;;;;7.22;2.30;;;13.10;99.90;;;;;;5031270;28;20485;-66
2023/09/15 00:07:49;;;;;;;5.25;2.63;;;13.00;99.90;;;;;;5033374;28;20444;-66
2023/09/15 00:10:16;;;;;;;7.68;3.28;;;13.00;99.90;;;;;;5032602;28;20056;-66
2023/09/15 00:12:43;;;;;;;6.80;2.17;;;13.00;99.90;;;;;;5032963;28;20473;-66
2023/09/15 00:15:12;;;;;;;7.50;2.22;;;13.00;99.90;;;;;;5033290;28;20045;-66
2023/09/15 00:17:41;;;;;;;3.10;1.98;;;13.00;99.90;;;;;;5032709;28;20045;-66
2023/09/15 00:20:13;;;;;;;6.10;2.45;;;13.00;99.90;;;;;;5021325;28;20048;-68
2023/09/15 00:22:42;;;;;;;4.47;2.30;;;13.00;99.90;;;;;;5035191;28;20041;-69
2023/09/15 00:25:09;;;;;;;7.25;2.88;;;12.90;99.90;;;;;;5031853;28;20076;-68
2023/09/15 00:27:37;;;;;;;6.88;2.97;;;12.90;99.90;;;;;;5032999;28;20447;-68
2023/09/15 00:30:05;;;;;;;8.65;2.70;;;12.90;99.90;;;;;;5032324;28;20485;-69
2023/09/15 00:32:32;;;;;;;5.88;2.83;;;12.90;99.90;;;;;;5032640;28;20052;-68
2023/09/15 00:34:59;;;;;;;7.78;2.47;;;12.90;99.90;;;;;;5034723;28;20041;-68
2023/09/15 00:37:27;;;;;;;5.80;2.22;;;12.90;99.90;;;;;;5034404;28;20740;-67
2023/09/15 00:39:54;;;;;;;4.97;2.10;;;12.80;99.90;;;;;;5032842;28;20060;-69
2023/09/15 00:42:21;;;;;;;4.72;2.67;;;12.90;99.90;;;;;;5034577;28;20100;-68
2023/09/15 00:44:48;;;;;;;6.68;2.47;;;12.80;99.90;;;;;;5031901;28;20052;-68
2023/09/15 00:47:16;;;;;;;5.30;2.30;;;12.80;99.90;;;;;;5034492;28;20485;-68
2023/09/15 00:49:44;;;;;;;4.28;2.00;;;12.80;99.90;;;;;;5020308;28;20048;-68
2023/09/15 00:52:11;;;;;;;7.15;2.72;;;12.80;99.90;;;;;;5019407;28;20058;-68
2023/09/15 00:54:41;;;;;;;8.55;2.70;;;12.80;99.90;;;;;;5053043;28;20052;-66
2023/09/15 00:57:08;;;;;;;5.03;2.55;;;12.80;99.90;;;;;;5019627;28;20045;-67
2023/09/15 00:59:36;;;;;;;6.43;2.45;;;12.70;99.90;;;;;;5019522;28;20064;-67
2023/09/15 01:02:03;;;;;;;5.60;2.25;;;12.70;99.90;;;;;;5020130;28;20052;-68
2023/09/15 01:04:31;;;;;;;5.25;2.83;;;12.70;99.90;;;;;;5019880;28;20381;-67
2023/09/15 01:07:01;;;;;;;3.97;2.42;;;12.70;99.90;;;;;;5019380;28;20084;-67
2023/09/15 01:09:29;;;;;;;7.07;3.08;;;12.70;99.90;;;;;;5018076;28;20444;-66
2023/09/15 01:11:58;;;;;;;6.20;2.38;;;12.70;99.90;;;;;;5019492;28;20091;-66
2023/09/15 01:14:25;;;;;;;5.75;2.38;;;12.70;99.90;;;;;;5052493;28;20041;-67
2023/09/15 01:16:59;;;;;;;5.85;2.30;;;12.60;99.90;;;;;;5019347;28;20554;-68
2023/09/15 01:19:53;;;;;;;7.22;2.88;;;12.60;99.90;;;;;;5018721;28;20048;-67
2023/09/15 01:22:36;;;;;;;5.85;2.45;;;12.60;99.90;;;;;;5035244;28;20112;-66
2023/09/15 01:25:31;;;;;;;6.07;2.50;;;12.60;99.90;;;;;;5019627;28;20088;-67
2023/09/15 01:28:22;;;;;;;9.18;3.28;;;12.50;99.90;;;;;;5018419;28;20050;-68
2023/09/15 01:30:51;;;;;;;9.75;2.88;;;12.50;99.90;;;;;;5031836;28;20057;-68
2023/09/15 01:33:19;;;;;;;7.97;3.17;;;12.50;99.90;;;;;;5018923;28;20049;-68
2023/09/15 01:35:46;;;;;;;6.95;2.60;;;12.50;99.90;;;;;;5018958;28;20048;-68
2023/09/15 01:38:13;;;;;;;5.95;2.58;;;12.40;99.90;;;;;;5019380;28;20111;-67
2023/09/15 01:40:40;;;;;;;6.07;2.40;;;12.40;99.90;;;;;;5018683;28;20049;-68
2023/09/15 01:43:07;;;;;;;5.80;2.83;;;12.40;99.90;;;;;;5016759;28;20042;-68
2023/09/15 01:45:34;;;;;;;6.53;2.47;;;12.40;99.90;;;;;;5035129;28;20057;-67
2023/09/15 01:48:04;;;;;;;8.00;2.90;;;12.30;99.90;;;;;;5051727;28;20044;-67
2023/09/15 01:50:32;;;;;;;7.27;3.10;;;12.30;99.90;;;;;;5018929;28;20497;-67
2023/09/15 01:52:59;;;;;;;11.35;2.95;;;12.30;99.90;;;;;;5018582;28;20073;-68
2023/09/15 01:55:27;;;;;;;6.25;2.60;;;12.30;99.90;;;;;;5051270;28;20501;-67
2023/09/15 01:57:54;;;;;;;6.05;2.80;;;12.30;99.90;;;;;;5018752;28;20089;-67
2023/09/15 02:00:21;;;;;;;6.80;2.05;;;12.30;99.90;;;;;;5019066;28;20100;-67
2023/09/15 02:02:48;;;;;;;8.30;2.47;;;12.30;99.90;;;;;;5033682;28;20057;-66
2023/09/15 02:05:24;;;;;;;5.70;2.70;;;12.30;99.90;;;;;;5018673;28;20048;-67
2023/09/15 02:07:51;;;;;;;6.18;3.05;;;12.20;99.90;;;;;;5032136;28;20059;-68
2023/09/15 02:10:18;;;;;;;7.13;3.35;;;12.20;99.90;;;;;;5018186;28;20091;-67
2023/09/15 02:12:45;;;;;;;5.70;2.88;;;12.20;99.90;;;;;;5016241;28;20037;-67
2023/09/15 02:15:12;;;;;;;5.45;2.58;;;12.10;99.90;;;;;;5018453;28;20079;-68
2023/09/15 02:17:39;;;;;;;7.32;2.95;;;12.10;99.90;;;;;;5023830;28;20053;-67
2023/09/15 02:20:11;;;;;;;8.48;2.50;;;12.10;99.90;;;;;;5030781;28;20405;-67
2023/09/15 02:22:40;;;;;;;7.45;2.50;;;12.10;99.90;;;;;;5049740;28;20041;-66
2023/09/15 02:25:09;;;;;;;5.90;2.28;;;12.10;99.90;;;;;;5051720;28;20047;-65
2023/09/15 02:27:37;;;;;;;5.45;2.65;;;12.10;99.90;;;;;;5051003;28;20110;-65
2023/09/15 02:30:04;;;;;;;3.88;2.40;;;12.00;99.90;;;;;;5014872;28;20041;-66
2023/09/15 02:32:31;;;;;;;9.50;3.25;;;12.00;99.90;;;;;;5033458;28;20045;-68
2023/09/15 02:34:58;;;;;;;5.78;2.60;;;11.90;99.90;;;;;;5018214;28;20540;-68
2023/09/15 02:37:25;;;;;;;6.25;2.67;;;11.90;99.90;;;;;;5017506;28;20072;-67
2023/09/15 02:39:54;;;;;;;8.82;2.88;;;11.90;99.90;;;;;;5051521;28;20048;-68
2023/09/15 02:42:21;;;;;;;5.90;2.60;;;11.80;99.90;;;;;;5051564;28;20050;-67
2023/09/15 02:44:48;;;;;;;8.82;3.45;;;11.80;99.90;;;;;;5017211;28;20060;-67
2023/09/15 02:47:15;;;;;;;9.00;3.00;;;11.80;99.90;;;;;;5017852;28;20424;-69
2023/09/15 02:49:42;;;;;;;5.50;2.60;;;11.80;99.90;;;;;;5017806;28;20045;-69
2023/09/15 02:52:09;;;;;;;4.93;2.65;;;11.80;99.90;;;;;;5017144;28;20049;-68
2023/09/15 02:54:36;;;;;;;6.13;2.47;;;11.80;99.90;;;;;;5017424;28;20053;-68
2023/09/15 02:57:05;;;;;;;5.15;2.83;;;11.70;99.90;;;;;;5017860;28;20065;-69
2023/09/15 02:59:31;;;;;;;7.57;2.70;;;11.80;99.90;;;;;;5050655;28;20056;-68
2023/09/15 03:01:59;;;;;;;9.05;2.97;;;11.80;99.90;;;;;;5017785;28;20053;-67
2023/09/15 03:04:26;;;;;;;10.25;2.47;;;11.80;99.90;;;;;;5018013;28;20050;-67
2023/09/15 03:06:53;;;;;;;10.77;3.30;;;11.80;99.90;;;;;;5015015;28;20103;-67
2023/09/15 03:09:20;;;;;;;6.78;2.75;;;11.80;99.90;;;;;;5017292;28;20045;-67
2023/09/15 03:11:47;;;;;;;6.45;2.58;;;11.80;99.90;;;;;;5048627;28;20047;-66
2023/09/15 03:14:18;;;;;;;5.95;2.55;;;11.80;99.90;;;;;;5016908;28;20053;-67
2023/09/15 03:16:45;;;;;;;;;;;11.80;99.90;;;;;;5018247;28;20049;-68
2023/09/15 03:19:11;;;;;;;6.65;2.70;;;11.80;99.90;;;;;;5050168;28;20377;-67
2023/09/15 03:21:39;;;;;;;5.00;2.47;;;11.80;99.90;;;;;;5051132;28;20451;-68
2023/09/15 03:24:07;;;;;;;11.52;2.78;;;11.80;99.90;;;;;;5018727;28;20143;-66
2023/09/15 03:26:35;;;;;;;6.88;3.10;;;11.70;99.90;;;;;;5030867;28;20156;-68
2023/09/15 03:29:02;;;;;;;4.20;2.30;;;11.70;99.90;;;;;;5029257;28;20055;-67
2023/09/15 03:31:31;;;;;;;6.63;3.10;;;11.60;99.90;;;;;;5030050;28;20057;-66
2023/09/15 03:33:58;;;;;;;8.43;2.90;;;11.60;99.90;;;;;;5031197;28;20056;-67
2023/09/15 03:36:28;;;;;;;7.13;2.88;;;11.50;99.90;;;;;;5031585;28;20053;-67
2023/09/15 03:38:55;;;;;;;5.65;2.85;;;11.40;99.90;;;;;;5030811;28;20489;-66
2023/09/15 03:41:24;;;;;;;5.97;2.88;;;11.40;99.90;;;;;;5033979;28;20435;-67
2023/09/15 03:43:51;;;;;;;5.82;3.17;;;11.40;99.90;;;;;;5018739;28;20061;-67
2023/09/15 03:46:17;;;;;;;7.53;2.92;;;11.30;99.90;;;;;;5033522;28;20049;-66
2023/09/15 03:48:46;;;;;;;7.70;3.10;;;11.30;99.90;;;;;;5030003;28;21836;-67
2023/09/15 03:51:13;;;;;;;8.40;2.92;;;11.30;99.90;;;;;;5041799;28;20075;-67
2023/09/15 03:53:41;;;;;;;6.63;2.85;;;11.30;99.90;;;;;;5025255;28;20037;-66
2023/09/15 03:56:08;;;;;;;7.35;3.50;;;11.40;99.90;;;;;;5028965;28;20103;-67
2023/09/15 03:58:35;;;;;;;4.40;2.95;;;11.30;99.90;;;;;;5033115;28;20413;-68
2023/09/15 04:01:06;;;;;;;5.95;3.70;;;11.30;99.90;;;;;;5036479;28;20050;-67
2023/09/15 04:03:33;;;;;;;;;;;11.40;99.90;;;;;;5034752;28;20056;-67
2023/09/15 04:06:03;;;;;;;8.23;3.25;;;11.30;99.90;;;;;;5022806;28;19921;-67
2023/09/15 04:08:30;;;;;;;7.57;3.17;;;11.30;99.90;;;;;;5028763;28;20630;-68
2023/09/15 04:10:57;;;;;;;5.97;3.35;;;11.40;99.90;;;;;;5023038;28;20312;-67
2023/09/15 04:13:24;;;;;;;4.95;3.00;;;11.40;99.90;;;;;;5030317;28;20049;-67
2023/09/15 04:15:52;;;;;;;9.65;4.15;;;11.30;99.90;;;;;;5035494;28;20489;-67
2023/09/15 04:18:19;;;;;;;11.40;4.07;;;11.30;99.90;;;;;;5030630;28;20460;-67
2023/09/15 04:20:46;;;;;;;5.53;3.38;;;11.30;99.90;;;;;;5032314;28;20554;-67
2023/09/15 04:23:14;;;;;;;4.90;3.40;;;11.30;99.90;;;;;;5027183;28;20056;-66
2023/09/15 04:25:41;;;;;;;7.28;3.60;;;11.40;99.90;;;;;;5034696;28;20052;-67
2023/09/15 04:28:08;;;;;;;10.05;3.97;;;11.40;99.90;;;;;;5034901;28;20497;-67
2023/09/15 04:30:35;;;;;;;7.68;3.22;;;11.30;99.90;;;;;;5032814;28;20477;-67
2023/09/15 04:33:03;;;;;;;6.68;4.63;;;11.30;99.90;;;;;;5036047;28;20049;-67
2023/09/15 04:35:30;;;;;;;5.88;3.55;;;11.20;99.90;;;;;;5039673;28;20394;-68
2023/09/15 04:37:57;;;;;;;9.18;3.42;;;11.20;99.90;;;;;;5044104;28;20052;-67
2023/09/15 04:40:26;;;;;;;8.30;3.50;;;11.30;99.90;;;;;;5029901;28;20063;-67
2023/09/15 04:42:53;;;;;;;8.32;4.53;;;11.20;99.90;;;;;;5021171;28;20044;-67
2023/09/15 04:45:20;;;;;;;8.07;4.07;;;11.10;99.90;;;;;;5024914;28;20053;-67
2023/09/15 04:47:47;;;;;;;6.53;4.10;;;11.00;99.90;;;;;;5028580;28;20103;-67
2023/09/15 04:50:14;;;;;;;7.30;3.65;;;11.00;99.90;;;;;;5046201;28;20479;-66
2023/09/15 04:52:41;;;;;;;5.93;3.80;;;10.90;99.90;;;;;;5044984;28;20033;-66
2023/09/15 04:55:08;;;;;;;8.73;4.57;;;10.90;99.90;;;;;;5026431;28;20440;-67
2023/09/15 04:57:37;;;;;;;8.73;4.32;;;10.80;99.90;;;;;;5021651;28;20049;-66
2023/09/15 05:00:12;;;;;;;8.40;4.47;;;10.80;99.90;;;;;;5022684;28;20053;-66
2023/09/15 05:02:41;;;;;;;7.30;3.67;;;10.80;99.90;;;;;;5030743;28;20049;-77
2023/09/15 05:05:08;;;;;;;9.32;3.95;;;10.70;99.90;;;;;;5024731;28;20471;-69
2023/09/15 05:07:36;;;;;;;6.53;3.97;;;10.70;99.90;;;;;;5026267;28;20549;-71
2023/09/15 05:10:04;;;;;;;6.80;4.57;;;10.70;99.90;;;;;;5027153;28;20048;-68
2023/09/15 05:12:31;;;;;;;9.98;4.53;;;10.70;99.90;;;;;;5030447;28;20052;-71
2023/09/15 05:14:59;;;;;;;9.25;4.50;;;10.70;99.90;;;;;;5023796;28;20045;-67
2023/09/15 05:17:27;;;;;;;10.63;4.63;;;10.70;99.90;;;;;;5021768;28;20049;-67
2023/09/15 05:19:56;;;;;;;7.53;4.57;;;10.70;99.90;;;;;;5022856;28;20056;-68
2023/09/15 05:22:23;;;;;;;7.15;4.47;;;10.60;99.90;;;;;;5036784;28;20080;-71
2023/09/15 05:24:50;;;;;;;7.70;5.05;;;10.70;99.90;;;;;;5026320;28;20061;-70
2023/09/15 05:27:17;;;;;;;9.05;5.13;;;10.70;99.90;;;;;;5021825;28;20055;-68
2023/09/15 05:29:44;;;;;;;10.32;4.88;;;10.70;99.90;;;;;;5033244;28;20048;-68
2023/09/15 05:32:12;;;;;;;7.28;4.88;;;10.70;99.90;;;;;;5041933;28;20049;-66
2023/09/15 05:34:39;;;;;;;13.07;4.78;;;10.70;99.90;;;;;;5024372;28;20309;-67
2023/09/15 05:37:07;;;;;;;9.38;5.22;;;10.70;99.90;;;;;;5024984;28;20060;-66
2023/09/15 05:39:33;;;;;;;7.43;5.10;;;10.70;99.90;;;;;;5020248;28;20053;-66
2023/09/15 05:42:00;;;;;;;8.48;4.90;;;10.80;99.90;;;;;;5025444;28;20045;-68
2023/09/15 05:44:27;;;;;;;13.07;5.65;;;10.80;99.90;;;;;;5018369;28;20037;-66
2023/09/15 05:46:54;;;;;;;11.63;5.50;;;10.90;99.90;;;;;;5027266;28;20102;-67
2023/09/15 05:49:23;;;;;;;11.45;6.00;;;10.90;99.90;;;;;;5024449;28;20077;-66
2023/09/15 05:51:50;;;;;;;10.25;5.05;;;10.90;99.90;;;;;;5020103;28;20049;-67
2023/09/15 05:54:17;;;;;;;9.48;5.28;;;10.90;99.90;;;;;;5028158;28;20049;-66
2023/09/15 05:56:44;;;;;;;6.93;4.88;;;11.10;99.90;;;;;;5032092;28;20465;-67
2023/09/15 05:59:11;;;;;;;11.40;5.10;;;11.10;99.90;;;;;;5027061;28;20436;-67
2023/09/15 06:01:39;;;;;;;11.95;6.05;;;11.10;99.90;;;;;;5024688;28;20052;-67
2023/09/15 06:04:07;;;;;;;8.63;4.88;;;11.10;99.90;;;;;;5048655;28;20116;-66
2023/09/15 06:06:35;;;;;;;11.45;5.55;;;11.20;99.90;;;;;;5025681;28;20048;-68
2023/09/15 06:09:02;;;;;;;7.53;5.30;;;11.30;99.90;;;;;;5028686;28;20052;-67
2023/09/15 06:11:29;;;;;;;8.80;5.15;;;11.30;99.90;;;;;;5023828;28;20508;-66
2023/09/15 06:13:56;;;;;;;12.00;5.68;;;11.50;99.90;;;;;;5026297;28;20045;-66
2023/09/15 06:16:23;;;;;;;9.13;4.93;;;11.40;99.90;;;;;;5037508;28;20045;-65
2023/09/15 06:18:50;;;;;;;11.35;5.63;;;11.50;99.90;;;;;;5038392;28;20060;-67
2023/09/15 06:21:17;;;;;;;7.03;5.10;;;11.60;99.90;;;;;;5020413;28;20056;-66
2023/09/15 06:23:45;;;;;;;11.13;5.20;;;11.90;99.90;;;;;;5025202;28;20049;-67
2023/09/15 06:26:12;;;;;;;9.52;5.10;;;12.20;99.90;;;;;;5031055;28;20053;-66
2023/09/15 06:28:39;;;;;;;8.48;4.88;;;12.40;99.90;;;;;;5022907;28;20440;-66
2023/09/15 06:31:06;;;;;;;11.48;5.05;;;12.60;99.90;;;;;;5018752;28;20049;-65
2023/09/15 06:33:33;;;;;;;8.27;4.95;;;12.60;99.90;;;;;;5023365;28;20463;-66
2023/09/15 06:36:01;;;;;;;9.02;5.15;;;12.70;99.90;;;;;;5030867;28;20049;-66
2023/09/15 06:38:31;;;;;;;9.05;4.88;;;12.80;99.90;;;;;;5025094;28;20045;-68
2023/09/15 06:40:59;;;;;;;11.73;4.82;;;12.90;99.90;;;;;;5043645;28;20132;-67
2023/09/15 06:43:26;;;;;;;9.30;5.43;;;12.90;99.90;;;;;;5035740;28;20061;-67
2023/09/15 06:45:53;;;;;;;9.52;4.82;;;12.90;99.90;;;;;;5043283;28;20045;-67
2023/09/15 06:48:20;;;;;;;8.20;4.63;;;13.00;99.90;;;;;;5038754;28;20826;-66
2023/09/15 06:50:47;;;;;;;9.48;5.20;;;13.00;99.90;;;;;;5044680;28;20041;-66
2023/09/15 06:53:14;;;;;;;8.48;4.90;;;13.20;99.90;;;;;;5036208;28;20037;-67
2023/09/15 06:55:41;;;;;;;9.18;4.40;;;13.80;99.90;;;;;;5022514;28;20059;-67
2023/09/15 06:58:09;;;;;;;6.82;4.63;;;14.90;99.90;;;;;;5017612;28;20053;-67
2023/09/15 07:00:36;;;;;;;6.65;4.10;;;16.40;99.90;;;;;;5022075;28;20065;-67
2023/09/15 07:03:03;;;;;;;9.38;3.90;;;17.60;99.90;;;;;;5025773;28;20493;-66
2023/09/15 07:05:30;;;;;;;6.97;3.35;;;18.90;99.90;;;;;;5027267;28;20057;-66
2023/09/15 07:07:57;;;;;;;7.13;3.83;;;19.80;99.90;;;;;;5027642;28;20497;-70
2023/09/15 07:10:24;;;;;;;6.43;3.85;;;20.20;99.90;;;;;;5022066;28;20418;-71
2023/09/15 07:12:51;;;;;;;7.55;3.58;;;21.00;99.90;;;;;;5026429;28;20057;-70
2023/09/15 07:15:20;;;;;;;6.90;3.22;;;21.50;99.90;;;;;;5024317;28;20042;-66
2023/09/15 07:17:46;;;;;;;7.18;2.83;;;21.90;99.90;;;;;;5028972;28;20057;-66
2023/09/15 07:20:13;;;;;;;8.30;3.80;;;22.70;99.90;;;;;;5022167;28;20486;-66
2023/09/15 07:22:40;;;;;;;8.20;3.47;;;23.30;98.40;;;;;;5029645;28;20053;-66
2023/09/15 07:25:08;;;;;;;5.30;2.90;;;23.60;97.20;;;;;;5020129;28;20061;-67
2023/09/15 07:27:35;;;;;;;6.93;3.22;;;23.40;96.20;;;;;;5017203;28;20073;-66
2023/09/15 07:30:02;;;;;;;6.07;2.78;;;24.10;96.40;;;;;;5025913;28;20512;-66
2023/09/15 07:32:30;;;;;;;4.47;2.90;;;24.40;95.60;;;;;;5027707;28;20088;-67
2023/09/15 07:34:57;;;;;;;7.88;3.10;;;24.30;94.60;;;;;;5020852;28;20092;-67
2023/09/15 07:37:24;;;;;;;8.85;3.10;;;25.00;94.30;;;;;;5022159;28;20045;-66
2023/09/15 07:39:51;;;;;;;6.47;3.15;;;25.60;93.30;;;;;;5017728;28;20065;-66
2023/09/15 07:42:18;;;;;;;5.63;2.85;;;25.90;92.40;;;;;;5021496;28;20045;-66
2023/09/15 07:44:45;;;;;;;8.10;3.38;;;25.40;91.80;;;;;;5018655;28;20049;-66
2023/09/15 07:47:14;;;;;;;6.30;2.75;;;26.00;91.30;;;;;;5018532;28;20053;-66
2023/09/15 07:49:42;;;;;;;5.13;2.90;;;26.00;91.10;;;;;;5019735;28;20135;-67
2023/09/15 07:52:09;;;;;;;6.32;2.42;;;26.40;90.60;;;;;;5019539;28;20049;-66
2023/09/15 07:54:36;;;;;;;7.53;2.97;;;26.60;90.00;;;;;;5021068;28;20049;-67
2023/09/15 07:57:04;;;;;;;6.57;2.72;;;26.40;89.50;;;;;;5021431;28;20050;-66
2023/09/15 07:59:31;;;;;;;7.10;2.47;;;26.50;89.50;;;;;;5029907;28;20053;-67
2023/09/15 08:01:58;;;;;;;6.10;2.50;;;26.60;89.00;;;;;;5025411;28;20061;-66
2023/09/15 08:04:25;;;;;;;4.35;2.75;;;26.30;88.80;;;;;;5020579;28;20057;-66
2023/09/15 08:06:54;;;;;;;4.03;2.10;;;27.10;89.20;;;;;;5026402;28;20065;-66
2023/09/15 08:09:21;;;;;;;6.25;2.60;;;27.50;86.90;;;;;;5029531;28;20049;-66
2023/09/15 08:11:49;;;;;;;5.75;2.22;;;27.70;86.70;;;;;;5019191;28;20096;-67
2023/09/15 08:14:15;;;;;;;4.75;2.22;;;28.10;85.80;;;;;;5022371;28;20046;-65
2023/09/15 08:16:42;;;;;;;6.03;2.70;;;28.20;85.30;;;;;;5033708;28;20058;-66
2023/09/15 08:19:09;;;;;;;8.57;2.55;;;28.20;84.70;;;;;;5019666;28;20128;-65
2023/09/15 08:21:36;;;;;;;4.03;2.50;;;28.60;84.00;;;;;;5029220;28;20058;-66
2023/09/15 08:24:05;;;;;;;6.32;2.53;;;28.60;83.20;;;;;;5013525;28;20564;-66
2023/09/15 08:26:32;;;;;;;7.07;2.30;;;28.80;82.80;;;;;;5028310;28;20053;-66
2023/09/15 08:28:59;;;;;;;4.15;2.20;;;28.90;82.30;;;;;;5028752;28;20053;-66
2023/09/15 08:31:28;;;;;;;6.43;2.33;;;29.30;82.10;;;;;;5029565;28;20410;-67
2023/09/15 08:33:55;;;;;;;5.13;2.35;;;29.20;81.40;;;;;;5024709;28;20411;-66
2023/09/15 08:36:22;;;;;;;5.78;1.85;;;29.50;81.20;;;;;;5030061;28;20045;-66
2023/09/15 08:38:49;;;;;;;3.78;1.77;;;29.70;80.90;;;;;;5030808;28;20053;-67
2023/09/15 08:41:22;;;;;;;6.72;2.15;;;29.60;79.90;;;;;;5028259;28;20045;-67
2023/09/15 08:43:50;;;;;;;5.93;2.13;;;29.40;78.70;;;;;;5014279;28;20046;-66
2023/09/15 08:46:18;;;;;;;5.72;2.10;;;29.20;79.80;;;;;;5016789;28;20050;-68
2023/09/15 08:48:49;;;;;;;3.20;1.88;;;29.70;79.20;;;;;;5026932;28;20409;-67
2023/09/15 08:51:16;;;;;;;3.88;2.05;;;29.50;78.50;;;;;;5028000;28;20049;-67
2023/09/15 08:53:44;;;;;;;6.10;1.98;;;29.70;78.40;;;;;;5027361;28;20053;-68
2023/09/15 08:56:11;;;;;;;5.25;2.10;;;29.70;78.00;;;;;;5027236;28;20105;-67
2023/09/15 08:58:40;;;;;;;5.22;1.90;;;29.80;77.90;;;;;;5012359;28;20485;-67
2023/09/15 09:01:09;;;;;;;4.82;1.80;;;29.80;77.20;;;;;;5028896;28;20452;-67
2023/09/15 09:03:38;;;;;;;4.35;2.22;;;29.80;77.60;;;;;;5015052;28;20042;-68
2023/09/15 09:06:09;;;;;;;;;;;30.00;76.60;;;;;;5031692;28;20053;-68
2023/09/15 09:08:37;;;;;;;4.22;2.10;;;29.80;76.30;;;;;;5015861;28;19948;-67
2023/09/15 09:11:05;;;;;;;3.88;1.98;;;30.20;77.40;;;;;;5031016;28;20056;-67
2023/09/15 09:13:32;;;;;;;6.97;2.40;;;30.10;77.00;;;;;;5015005;28;20501;-67
2023/09/15 09:16:02;;;;;;;6.25;2.10;;;30.40;77.20;;;;;;5014746;28;20112;-67
2023/09/15 09:18:29;;;;;;;6.60;3.08;;;29.90;75.60;;;;;;5012425;28;20494;-67
2023/09/15 09:20:56;;;;;;;5.40;2.10;;;30.20;76.40;;;;;;5027517;28;20103;-67
2023/09/15 09:23:23;;;;;;;4.18;1.85;;;30.40;76.20;;;;;;5013110;28;20060;-68
2023/09/15 09:25:50;;;;;;;3.90;1.83;;;30.50;75.80;;;;;;5012382;28;20512;-66
2023/09/15 09:28:21;;;;;;;5.95;2.15;;;30.20;75.50;;;;;;5012748;28;20789;-67
2023/09/15 09:30:48;;;;;;;5.15;2.42;;;30.40;76.00;;;;;;5027606;28;20057;-67
2023/09/15 09:33:20;;;;;;;4.68;2.20;;;30.10;76.50;;;;;;5028201;28;20473;-66
2023/09/15 09:35:47;;;;;;;3.95;1.90;;;30.40;74.20;;;;;;5013211;28;20064;-67
2023/09/15 09:38:14;;;;;;;4.68;2.25;;;30.50;74.50;;;;;;5029099;28;20053;-68
2023/09/15 09:40:42;;;;;;;4.10;2.20;;;30.40;74.50;;;;;;5012573;28;20103;-67
2023/09/15 09:43:09;;;;;;;6.00;2.50;;;30.40;74.30;;;;;;5027350;28;20107;-68
2023/09/15 09:45:36;;;;;;;6.13;2.80;;;30.20;74.40;;;;;;5029579;28;20050;-68
2023/09/15 09:48:03;;;;;;;8.48;2.55;;;30.60;73.90;;;;;;5021371;28;20460;-68
2023/09/15 09:50:31;;;;;;;4.22;2.17;;;29.90;74.00;;;;;;5016255;28;20371;-67
2023/09/15 09:52:58;;;;;;;4.75;2.50;;;30.40;73.80;;;;;;5016558;28;20054;-67
2023/09/15 09:55:27;;;;;;;5.00;2.22;;;30.50;73.00;;;;;;5019326;28;20060;-68
2023/09/15 09:57:54;;;;;;;6.18;2.08;;;30.50;72.10;;;;;;5017278;28;20129;-67
2023/09/15 10:00:22;;;;;;;5.55;2.42;;;30.20;72.70;;;;;;5017204;28;20042;-68
2023/09/15 10:02:49;;;;;;;6.57;2.67;;;30.40;72.80;;;;;;5015806;28;20555;-67
2023/09/15 10:05:16;;;;;;;6.68;2.40;;;30.40;72.60;;;;;;5015877;28;20490;-67
2023/09/15 10:07:47;;;;;;;5.70;2.38;;;30.70;72.30;;;;;;5016817;28;20068;-67
2023/09/15 10:10:14;;;;;;;4.13;2.30;;;30.30;71.90;;;;;;5019417;28;20061;-67
2023/09/15 10:12:41;;;;;;;7.28;3.35;;;30.50;72.20;;;;;;5018535;28;20054;-68
2023/09/15 10:15:11;;;;;;;7.65;2.50;;;30.70;72.40;;;;;;5013189;28;20455;-68
2023/09/15 10:17:38;;;;;;;;;;;30.90;71.80;;;;;;5018177;28;20498;-69
2023/09/15 10:20:07;;;;;;;4.30;2.50;;;30.40;71.50;;;;;;5022928;28;19921;-69
2023/09/15 10:22:37;;;;;;;4.15;2.83;;;30.40;72.90;;;;;;5015122;28;20046;-68
2023/09/15 10:25:06;;;;;;;4.47;2.67;;;31.00;72.50;;;;;;5011516;28;20045;-69
2023/09/15 10:27:34;;;;;;;6.20;2.92;;;30.70;72.40;;;;;;5027166;28;20057;-69
2023/09/15 10:30:05;;;;;;;7.10;2.70;;;31.10;71.50;;;;;;5026616;28;20111;-68
2023/09/15 10:32:37;;;;;;;6.00;3.08;;;30.90;71.50;;;;;;5020870;28;20053;-68
2023/09/15 10:35:06;;;;;;;4.28;2.50;;;31.10;71.10;;;;;;5019224;28;20058;-68
2023/09/15 10:37:33;;;;;;;6.13;2.63;;;30.90;71.80;;;;;;5015673;28;20567;-67
2023/09/15 10:40:01;;;;;;;4.45;2.65;;;31.50;71.60;;;;;;5025741;28;20054;-69
2023/09/15 10:42:29;;;;;;;5.50;3.22;;;31.50;71.40;;;;;;5021973;28;20054;-68
2023/09/15 10:44:56;;;;;;;8.52;3.00;;;31.40;70.80;;;;;;5024886;28;20445;-67
2023/09/15 10:47:23;;;;;;;5.75;2.55;;;32.00;72.00;;;;;;5018302;28;20057;-67
2023/09/15 10:49:51;;;;;;;5.38;2.47;;;31.50;71.40;;;;;;5021860;28;20045;-67
2023/09/15 10:52:18;;;;;;;8.63;3.40;;;32.20;71.30;;;;;;5025432;28;20060;-69
2023/09/15 10:54:49;;;;;;;7.15;2.78;;;31.80;70.90;;;;;;5030987;28;20408;-67
2023/09/15 10:57:17;;;;;;;5.80;2.60;;;32.00;70.50;;;;;;5043139;28;20558;-67
2023/09/15 10:59:46;;;;;;;5.07;2.63;;;32.20;70.30;;;;;;5026943;28;20056;-68
2023/09/15 11:02:12;;;;;;;7.72;2.38;;;32.30;70.90;;;;;;5026668;28;20440;-68
2023/09/15 11:04:41;;;;;;;4.53;2.50;;;31.60;71.10;;;;;;5023041;28;20060;-68
2023/09/15 11:07:09;;;;;;;6.25;2.58;;;32.40;70.50;;;;;;5033082;28;20068;-68
2023/09/15 11:09:36;;;;;;;5.37;2.40;;;32.50;70.60;;;;;;5028375;28;20057;-68
2023/09/15 11:12:04;;;;;;;5.13;2.22;;;33.10;70.10;;;;;;5031658;28;20629;-67
2023/09/15 11:14:31;;;;;;;8.25;2.80;;;33.10;69.60;;;;;;5021687;28;20472;-67
2023/09/15 11:16:59;;;;;;;5.15;2.25;;;33.30;69.20;;;;;;5028246;28;20064;-68
2023/09/15 11:19:30;;;;;;;4.57;2.58;;;33.20;69.20;;;;;;5018404;28;20052;-68
2023/09/15 11:21:58;;;;;;;4.75;2.47;;;33.10;68.40;;;;;;5020825;28;20060;-67
2023/09/15 11:24:26;;;;;;;6.15;2.20;;;32.20;69.00;;;;;;5025325;28;20081;-66
2023/09/15 11:26:53;;;;;;;6.18;2.47;;;31.70;69.60;;;;;;5045956;28;20056;-67
2023/09/15 11:29:26;;;;;;;4.95;2.50;;;32.30;69.10;;;;;;5025816;28;20481;-68
2023/09/15 11:31:54;;;;;;;4.20;2.20;;;32.30;68.40;;;;;;5030262;28;20059;-66
2023/09/15 11:34:22;;;;;;;6.95;2.72;;;32.20;69.30;;;;;;5021832;28;20053;-67
2023/09/15 11:36:51;;;;;;;3.97;2.10;;;32.30;69.30;;;;;;5017207;28;20445;-66
2023/09/15 11:39:18;;;;;;;5.28;2.42;;;32.10;70.00;;;;;;5022663;28;20824;-68
2023/09/15 11:41:53;;;;;;;3.10;1.63;;;32.70;67.60;;;;;;5036447;28;20049;-68
2023/09/15 11:44:20;;;;;;;3.63;2.08;;;32.80;68.60;;;;;;5018850;28;20164;-68
2023/09/15 11:46:48;;;;;;;6.90;2.97;;;32.80;68.30;;;;;;5022518;28;20049;-68
2023/09/15 11:49:16;;;;;;;4.68;2.20;;;33.20;68.40;;;;;;5026160;28;20045;-68
2023/09/15 11:51:45;;;;;;;8.52;2.20;;;33.40;68.40;;;;;;5027396;28;20432;-68
2023/09/15 11:54:12;;;;;;;4.80;2.22;;;33.50;68.30;;;;;;5028260;28;20136;-67
2023/09/15 11:56:40;;;;;;;2.65;1.60;;;33.00;67.30;;;;;;5016263;28;20128;-69
2023/09/15 11:59:07;;;;;;;5.18;2.70;;;32.30;67.80;;;;;;5014680;28;20068;-67
2023/09/15 12:01:36;;;;;;;5.05;1.98;;;32.00;68.40;;;;;;5053117;28;20051;-66
2023/09/15 12:04:04;;;;;;;7.97;1.98;;;31.90;68.50;;;;;;5019579;28;20132;-67
2023/09/15 12:06:32;;;;;;;5.25;1.88;;;31.50;68.90;;;;;;5020528;28;20049;-68
2023/09/15 12:09:00;;;;;;;5.57;1.95;;;31.40;68.90;;;;;;5020242;28;20143;-67
2023/09/15 12:11:28;;;;;;;7.50;2.17;;;31.60;68.90;;;;;;5020712;28;20053;-66
2023/09/15 12:13:56;;;;;;;4.20;2.10;;;31.50;69.30;;;;;;5019903;28;20112;-68
2023/09/15 12:16:27;;;;;;;6.82;1.90;;;30.80;69.50;;;;;;5020470;28;20118;-67
2023/09/15 12:18:55;;;;;;;3.40;1.65;;;31.40;69.90;;;;;;5034881;28;20525;-67
2023/09/15 12:21:24;;;;;;;6.05;1.77;;;31.80;69.90;;;;;;5031881;28;20052;-67
2023/09/15 12:23:54;;;;;;;4.80;1.88;;;31.70;69.60;;;;;;5018873;28;20053;-67
2023/09/15 12:26:24;;;;;;;10.30;2.10;;;32.40;70.00;;;;;;5053190;28;20500;-66
2023/09/15 12:28:53;;;;;;;4.78;2.20;;;32.40;69.90;;;;;;5020890;28;20087;-68
2023/09/15 12:31:21;;;;;;;4.30;2.00;;;32.70;70.00;;;;;;5019959;28;20044;-68
2023/09/15 12:33:48;;;;;;;3.92;1.60;;;33.30;68.40;;;;;;5024111;28;20049;-67
2023/09/15 12:36:16;;;;;;;4.97;1.77;;;33.20;67.90;;;;;;5020222;28;20537;-66
2023/09/15 12:38:44;;;;;;;4.38;1.80;;;32.80;68.80;;;;;;5016963;28;20067;-66
2023/09/15 12:41:11;;;;;;;6.60;2.30;;;33.00;68.60;;;;;;5023803;28;20047;-67
2023/09/15 12:43:39;;;;;;;4.70;2.10;;;32.60;68.30;;;;;;5015711;28;20124;-67
2023/09/15 12:46:06;;;;;;;5.60;2.20;;;32.50;68.50;;;;;;5030089;28;20083;-68
2023/09/15 12:48:33;;;;;;;4.47;1.88;;;32.50;68.60;;;;;;5027212;28;20049;-67
2023/09/15 12:51:00;;;;;;;4.88;2.00;;;32.30;68.90;;;;;;5019201;28;20444;-67